x

Halibut Bank (46146) Wave Buoy

5:00am - Sun 2nd Aug 2015 All times are PDT. -7 hours from GMT.

  • Sig Wave height 2.3ft
  • Peak Period 4s
  • Wind
    18mph, 20mph gusts
  • Sea Temp 65°f
  • Air Temp 65°f
  • Sea Pressure 1013mb
  • Halibut Bank
  • Halibut Bank

More Historic Weather Station data

Upgrade to MSW Pro to gain access to the past 30 days of data for over 8000 Wavebouys and Weather Stations around the globe.

Join Pro

Comparision Forecast

View Surf forecast
   
Sun 08/02 5:00am 2.5ft 4s 18 20 mph 1013mb 65f 65f
4:00am 2.5ft 4s 20 22 mph 1013mb 65f 66f
3:00am 2ft 4s 18 22 mph 1012.7mb 66f 66f
2:00am 2.5ft 4s 18 20 mph 1012.5mb 66f 67f
1:00am 2ft 3s 20 25 mph 1012.4mb 67f 68f
12:00am 1.6ft 3s 18 22 mph 1012.4mb 67f 69f
Sat 08/01 11:00pm 1.6ft 3s 18 22 mph 1012.3mb 67f 70f
10:00pm 1ft 3s 20 22 mph 1012.3mb 68f 71f
9:00pm 1.3ft 3s 11 13 mph 1012.6mb 68f 71f
8:00pm 1.3ft 3s 13 16 mph 1012.3mb 67f 70f
7:00pm 1.3ft 3s 11 13 mph 1012.5mb 69f 71f
6:00pm 1.3ft 3s 11 13 mph 1012.7mb 68f 70f
5:00pm 1.3ft 3s 9
mph
1013.4mb 68f 71f
4:00pm 1ft 3s 9 11 mph 1014.1mb 68f 69f
3:00pm 1ft 3s 11 13 mph 1014.7mb 68f 69f
2:00pm 1.3ft 3s 9 11 mph 1015.6mb 67f 68f
1:00pm 2ft 4s 11 13 mph 1015.7mb 67f 67f
12:00pm 2ft 4s 13 16 mph 1016.3mb 67f 66f
11:00am 2ft 4s 16 18 mph 1016.6mb 67f 66f
10:00am 2.5ft 4s 18 20 mph 1016.5mb 65f 65f
9:00am 2.5ft 4s 18 20 mph 1016.7mb 66f 65f
8:00am 2.5ft 4s 20 25 mph 1016.5mb 66f 65f
6:00am 3ft 4s 20 25 mph 1015.8mb 67f 66f
5:00am 2.5ft 4s 18 22 mph 1015.4mb 67f 67f
4:00am 2.5ft 4s 18 22 mph 1015.2mb 67f 68f
3:00am 2.5ft 4s 22 25 mph 1015mb 68f 68f
2:00am 2ft 4s 20 25 mph 1015.1mb 68f 69f
1:00am 1.6ft 3s 18 20 mph 1015.1mb 69f 70f
12:00am 1.6ft 3s 18 22 mph 1015.2mb 70f 71f
Fri 07/31 11:00pm 1.3ft 3s 18 22 mph 1014.7mb 71f 71f
10:00pm 0.7ft 2s 16 18 mph 1014.7mb 71f 73f
9:00pm 0.3ft 4s 11 13 mph 1014.7mb 71f 72f
8:00pm 0.3ft 2s 2 4 mph 1014.9mb 71f 72f
7:00pm 0.7ft 3s 4
mph
1015mb 72f 72f
6:00pm 0.7ft 3s 2
mph
1015.4mb 71f 73f
5:00pm 0.7ft 3s 4
mph
1016.2mb 71f 71f
3:00pm 1ft 3s 4 7 mph 1017.7mb 71f 70f
2:00pm 1ft 3s 7 9 mph 1018.2mb 70f 69f
1:00pm 1.3ft 4s 9
mph
1018.7mb 69f 68f
12:00pm 1.3ft 4s 9 11 mph 1019.1mb 69f 67f
11:00am 1.3ft 3s 13 16 mph 1019.5mb 69f 66f
10:00am 1.3ft 4s 13 16 mph 1019.5mb 69f 66f
9:00am 1.6ft 3s 16 18 mph 1019.3mb 69f 66f
8:00am 1.6ft 4s 16 18 mph 1019.2mb 69f 66f
7:00am 1.6ft 3s 16 18 mph 1018.8mb 69f 67f
6:00am 1.6ft 4s 16 18 mph 1018.3mb 69f 67f
5:00am 1.6ft 4s 18 20 mph 1017.6mb 70f 68f
4:00am 1.6ft 3s 16 20 mph 1017.4mb 69f 68f
3:00am 1.3ft 3s 16 18 mph 1017.2mb 69f 69f
2:00am 0.7ft 3s 13 18 mph 1017.1mb 70f 70f
1:00am 0.3ft 2s 9 13 mph 1017.1mb 70f 71f
12:00am 0.3ft 4s 11 13 mph 1016.8mb 70f 72f
Thu 07/30 11:00pm 0.3ft 6s 7
mph
1016.6mb 70f 71f
10:00pm 0.3ft 3s 4 7 mph 1016.5mb 71f 71f
9:00pm 0.3ft 6s 2 4 mph 1016.1mb 71f 73f
8:00pm 0.3ft 3s 2 4 mph 1015.9mb 71f 72f
7:00pm 0.7ft 5s 2 4 mph 1016.2mb 71f 73f
6:00pm 0.3ft 6s 4
mph
1016.5mb 71f 73f
5:00pm 0.3ft 2s 4
mph
1017.1mb 71f 72f
4:00pm 0.7ft 3s 4 7 mph 1017.9mb 71f 72f
3:00pm 0.7ft 3s 7
mph
1018.8mb 71f 71f
2:00pm 0.7ft 3s 9
mph
1019.6mb 71f 69f
1:00pm 0.7ft 3s 7 9 mph 1020mb 70f 68f
12:00pm 1ft 3s 9
mph
1020.5mb 70f 67f
11:00am 1ft 3s 13
mph
1020.6mb 69f 67f
10:00am 1.3ft 3s 13 16 mph 1020.6mb 68f 66f
9:00am 1.3ft 3s 13 16 mph 1020.7mb 68f 66f
8:00am 1.3ft 3s 16 18 mph 1020.7mb 68f 66f
7:00am 1.3ft 3s 13 16 mph 1020.3mb 68f 67f
6:00am 1.3ft 3s 13
mph
1020mb 68f 67f
5:00am 1.3ft 3s 13 16 mph 1019.6mb 68f 68f
4:00am 0.7ft 3s 13 16 mph 1019.3mb 68f 68f
3:00am 0.3ft 2s 9 11 mph 1019.6mb 68f 69f
2:00am 0.3ft 2s 9
mph
1019.3mb 68f 70f
1:00am 0.3ft 2s 2 4 mph 1019.4mb 68f 69f
12:00am 0.3ft 2s 7
mph
1019.2mb 68f 69f
Wed 07/29 11:00pm 0.3ft 7s 9 11 mph 1019.2mb 68f 70f
10:00pm 0.3ft 7s 2
mph
1019.4mb 69f 69f
9:00pm 0.3ft 2s 4
mph
1019.2mb 70f 70f
8:00pm 0.3ft 2s 4
mph
1019.1mb 71f 71f
7:00pm 0.7ft 7s 2
mph
1019.3mb 72f 71f
6:00pm 0.3ft 4s  -  2 mph 1019.7mb 73f 71f
5:00pm 0.7ft 6s 2
mph
1020.2mb 71f 71f
4:00pm 0.3ft 4s  -  mph 1020.8mb 71f 73f
3:00pm 0.3ft 3s 2 4 mph 1021.5mb 70f 69f
2:00pm 0.3ft 2s 2 4 mph 1022mb 71f 68f